Impacts TAF Board INFO
FOR SITUATIONAL AWARENESS. NOT TO BE USED FOR FLIGHT PLANNING PURPOSES.
IDs:

KSTL - St Louis/Lambert Int, MO, US

Issued at 2339 UTC 15 Aug 2018
Updated at 0308 UTC 16 Aug 2018
Potential Impact None Slight Moderate High
Time<<17/04Z 17/05Z 17/06Z 17/07Z 17/08Z 17/09Z 17/10Z 17/11Z 17/12Z 17/13Z 17/14Z 17/15Z 17/16Z
Type PRVL PRVL
VIS >6 >6
CIG -- --
Cover SCT SCT
FltCat VFR VFR
WX VCSH VCSH
WDir 270 270
WSpd 6 6
WGst -- --

Raw TAF
KSTL 152339Z 1600/1706 20007KT P6SM VCSH BKN040
  FM160300 VRB04KT P6SM BKN040
  FM161500 27008KT P6SM BKN040
  FM170200 27006KT P6SM VCSH SCT050


METAR Board
Radar Display
Forecast Discussion

FOR SITUATIONAL AWARENESS. NOT TO BE USED FOR FLIGHT PLANNING PURPOSES.